LIVE Streaming HD
Get Adobe Flash player
Annunci di Google
PREVISIONE METEO PER DOMANI
Annuci di Google
Dati meteo stazione (refresh automatico ogni minuto)
Latina(LT) VENTO: VELOCITÀ   PIOGGIA: QTA GIORNO TEMPERATURA: ATTUALE
SPOT: Latina lido
(Hotel Tirreno) Posizione su Googlemap: Latitudine 41.41 Longitudine 12.84
RAFFICA MASSIMA: QTA MENSILE: MASSIMA:
VELOCITÀ MEDIA: QTA ANNUALE: MINIMA:
DIREZIONE: UMIDITÀ: WIND CHILL:
TIPO: DEW POINT:
BEAUFORT: PRESSIONE:
I nostri partner
Latina(LT) nelle ultime ore
Applica filtri in visualizzazione Intervallo delle letture nelle ultime

Ora Direzione Vento Velocita' Vento Media Vento Raffica Max. Temperatura Wind Chill Pioggia Pressione
13:17:0494 °(E)3 Kts3.8 Kts6.4 Kts7.5 °C2.3 °C0 mm1006.2 Hpa
13:12:1193 °(E)6.4 Kts3 Kts6.4 Kts7.7 °C3.5 °C0 mm1006.2 Hpa
13:07:1886 °(E)3.8 Kts3 Kts5.6 Kts7.9 °C3.8 °C0 mm1006.4 Hpa
13:02:2696 °(E)3.8 Kts3 Kts5.6 Kts8.2 °C4.1 °C0 mm1006.6 Hpa
12:57:3176 °(ENE)3 Kts3 Kts5.6 Kts8.3 °C4.2 °C0 mm1007 Hpa
12:52:3974 °(ENE)1.2 Kts3 Kts5.6 Kts8.3 °C4.2 °C0 mm1007.1 Hpa
12:47:2378 °(ENE)3 Kts2.1 Kts5.6 Kts8.4 °C5.2 °C0 mm1007 Hpa
12:42:0476 °(ENE)1.2 Kts1.2 Kts5.6 Kts8.4 °C6.1 °C0 mm1007.1 Hpa
12:37:2792 °(E)1.2 Kts2.1 Kts5.6 Kts8.3 °C5.2 °C0 mm1007 Hpa
12:32:3794 °(E)2.1 Kts2.1 Kts5.6 Kts8.3 °C5.1 °C0 mm1007 Hpa
12:27:36104 °(ESE)3 Kts3 Kts5.6 Kts8.3 °C4.2 °C0 mm1007 Hpa
12:22:39103 °(ESE)3 Kts3.8 Kts5.6 Kts8.2 °C3.1 °C0 mm1007 Hpa
12:17:03108 °(ESE)4.7 Kts4.7 Kts5.6 Kts8.1 °C2.2 °C0 mm1007 Hpa
12:12:09101 °(E)4.7 Kts3.8 Kts5.6 Kts8.1 °C3 °C0 mm1007 Hpa
12:07:1498 °(E)4.7 Kts2.1 Kts5.6 Kts8 °C4.8 °C0 mm1007.2 Hpa
12:02:3790 °(E)1.2 Kts2.1 Kts5.6 Kts7.9 °C4.7 °C0 mm1007.5 Hpa
11:56:5879 °(E)2.1 Kts3 Kts5.6 Kts7.8 °C3.7 °C0 mm1007.5 Hpa
11:52:0584 °(E)2.1 Kts3 Kts5.6 Kts7.8 °C3.6 °C0 mm1007.7 Hpa
11:47:1394 °(E)3 Kts3 Kts5.6 Kts7.7 °C3.5 °C0 mm1007.7 Hpa
11:41:5992 °(E)3 Kts3 Kts5.6 Kts7.6 °C3.3 °C0 mm1007.8 Hpa
11:36:4586 °(E)2.1 Kts3 Kts5.6 Kts7.5 °C3.3 °C0 mm1007.9 Hpa
11:32:3597 °(E)3 Kts3.8 Kts5.6 Kts7.4 °C2.3 °C0 mm1008 Hpa
11:27:0196 °(E)3.8 Kts3.8 Kts5.6 Kts7.4 °C2.3 °C0 mm1008 Hpa
11:22:0591 °(E)4.7 Kts3.8 Kts5.6 Kts7.3 °C2.1 °C0 mm1008 Hpa